Time;durP1;ratioP1;P1;durP2;ratioP2;P2;SDS_P1;SDS_P2;PMS_P1;PMS_P2;Temp;Humidity;BMP_temperature;BMP_pressure;BME280_temperature;BME280_humidity;BME280_pressure;Samples;Min_cycle;Max_cycle;Signal;HPM_P1;HPM_P2
2021/06/16 03:30:27;;;;;;;3.90;3.60;;;;;;;20.87;54.18;98726.19;8329650;23;20187;-83
2021/06/16 03:33:49;;;;;;;3.93;3.63;;;;;;;21.17;53.22;98718.81;6930886;28;20213;-84
2021/06/16 03:37:12;;;;;;;3.87;3.50;;;;;;;21.25;52.92;98730.06;6939401;28;20231;-83
2021/06/16 03:40:34;;;;;;;4.53;4.00;;;;;;;21.01;53.33;98727.31;6948790;28;20231;-84
2021/06/16 03:43:56;;;;;;;4.50;3.93;;;;;;;21.10;53.72;98725.69;6950397;28;20215;-86
2021/06/16 03:47:20;;;;;;;4.00;3.70;;;;;;;21.13;53.20;98725.13;6966506;22;20233;-86
2021/06/16 03:50:42;;;;;;;5.30;3.83;;;;;;;21.02;53.37;98727.84;6929341;28;20203;-87
2021/06/16 03:54:11;;;;;;;3.90;3.50;;;;;;;20.91;53.46;98703.47;6928049;28;20201;-86
2021/06/16 03:57:32;;;;;;;6.97;3.90;;;;;;;21.12;53.27;98724.31;6928252;28;20287;-87
2021/06/16 04:00:54;;;;;;;4.10;3.70;;;;;;;21.12;52.86;98707.03;6927418;28;20235;-87
2021/06/16 04:04:18;;;;;;;6.60;4.10;;;;;;;20.80;53.20;98654.41;6933932;28;20201;-84
2021/06/16 04:07:40;;;;;;;6.67;3.90;;;;;;;20.82;54.41;98723.44;6954771;28;20269;-87
2021/06/16 04:11:02;;;;;;;7.17;3.77;;;;;;;21.08;53.54;98705.94;6941308;28;20209;-87
2021/06/16 04:14:24;;;;;;;17.77;11.47;;;;;;;21.19;53.16;98703.72;6951043;28;20209;-86
2021/06/16 04:17:46;;;;;;;16.10;13.37;;;;;;;21.16;53.37;98703.47;6964109;28;20232;-85
2021/06/16 04:21:10;;;;;;;4.60;4.20;;;;;;;21.54;52.25;98711.09;6930510;28;20199;-86
2021/06/16 04:24:32;;;;;;;4.13;3.73;;;;;;;21.62;51.49;98707.78;6928207;28;20207;-85
2021/06/16 04:27:55;;;;;;;5.10;4.70;;;;;;;21.39;52.20;98706.47;6932473;28;20221;-86
2021/06/16 04:31:17;;;;;;;4.97;4.00;;;;;;;21.29;52.21;98702.91;6927470;28;20833;-84
2021/06/16 04:34:39;;;;;;;4.90;4.03;;;;;;;21.15;53.22;98682.63;6955585;28;20227;-86
2021/06/16 04:38:02;;;;;;;3.90;3.60;;;;;;;21.10;53.77;98696.34;6960396;28;20595;-86
2021/06/16 04:41:24;;;;;;;5.17;4.50;;;;;;;21.00;54.40;98684.56;6959129;28;20211;-86
2021/06/16 04:44:46;;;;;;;5.70;4.93;;;;;;;21.11;53.44;98628.63;6959475;28;20216;-86
2021/06/16 04:48:08;;;;;;;4.80;4.40;;;;;;;21.68;53.42;98677.34;6958738;28;20242;-84
2021/06/16 04:55:12;;;;;;;3.77;3.47;;;;;;;22.39;50.66;98681.41;6961743;28;20256;-86
2021/06/16 04:58:34;;;;;;;4.13;3.70;;;;;;;22.29;50.20;98653.16;6958779;28;20203;-83
2021/06/16 05:01:56;;;;;;;4.43;4.03;;;;;;;22.57;49.84;98667.03;6958161;28;20210;-86
2021/06/16 05:05:17;;;;;;;3.93;3.47;;;;;;;22.78;49.62;98693.25;6962022;28;20217;-86
2021/06/16 05:08:39;;;;;;;3.90;3.43;;;;;;;23.04;49.50;98700.22;6954149;28;20203;-86
2021/06/16 05:12:03;;;;;;;5.67;4.00;;;;;;;23.50;48.39;98700.63;6930877;28;20207;-87
2021/06/16 05:15:25;;;;;;;5.60;3.93;;;;;;;23.16;49.32;98680.56;6930891;28;20228;-86
2021/06/16 05:18:47;;;;;;;3.73;3.40;;;;;;;23.47;49.16;98696.53;6936046;28;20210;-86
2021/06/16 05:22:11;;;;;;;16.27;11.80;;;;;;;23.55;49.21;98678.56;6969958;28;20266;-86
2021/06/16 05:25:33;;;;;;;9.43;7.17;;;;;;;23.83;48.17;98689.53;6958066;28;20226;-86
2021/06/16 05:28:55;;;;;;;10.80;7.10;;;;;;;24.55;45.61;98691.91;6947017;28;20196;-85
2021/06/16 05:32:17;;;;;;;9.20;6.87;;;;;;;24.47;45.34;98617.31;6960307;28;20206;-86
2021/06/16 05:35:39;;;;;;;5.93;5.00;;;;;;;24.53;45.45;98633.50;6942494;28;20691;-86
2021/06/16 05:39:01;;;;;;;4.07;3.67;;;;;;;24.83;45.67;98692.91;6933975;28;20588;-86
2021/06/16 05:42:23;;;;;;;4.37;3.47;;;;;;;24.54;46.46;98672.94;6930545;28;20277;-86
2021/06/16 05:45:46;;;;;;;4.27;3.87;;;;;;;24.86;45.27;98695.91;6930462;28;20241;-86
2021/06/16 05:49:07;;;;;;;3.60;3.27;;;;;;;25.43;44.25;98687.19;6931180;28;20195;-85
2021/06/16 05:52:29;;;;;;;3.93;3.10;;;;;;;24.99;45.08;98661.19;6931963;28;20664;-86
2021/06/16 05:55:51;;;;;;;4.77;3.37;;;;;;;25.29;44.22;98669.81;6932202;28;20233;-86
2021/06/16 05:59:12;;;;;;;4.57;3.53;;;;;;;25.83;43.34;98693.94;6932284;28;20203;-86
2021/06/16 06:02:35;;;;;;;4.10;3.20;;;;;;;25.80;43.92;98673.25;6932426;28;20217;-86
2021/06/16 06:05:57;;;;;;;3.90;3.27;;;;;;;26.74;41.08;98688.94;6933752;28;20219;-86
2021/06/16 06:09:19;;;;;;;4.73;3.20;;;;;;;26.53;41.39;98626.06;6955996;28;20216;-86
2021/06/16 06:12:41;;;;;;;4.50;3.23;;;;;;;27.37;39.75;98661.91;6957940;28;20218;-85
2021/06/16 06:16:03;;;;;;;4.33;3.63;;;;;;;26.73;39.98;98689.25;6956775;28;20228;-85
2021/06/16 06:19:26;;;;;;;3.90;3.50;;;;;;;26.58;41.37;98687.66;6956909;28;20201;-85
2021/06/16 06:22:47;;;;;;;4.60;3.67;;;;;;;26.42;41.75;98686.31;6957441;28;20241;-86
2021/06/16 06:26:09;;;;;;;5.37;3.43;;;;;;;26.33;42.56;98682.66;6958153;28;20225;-85
2021/06/16 06:29:33;;;;;;;5.33;4.13;;;;;;;26.53;42.84;98684.13;6956984;28;20223;-86
2021/06/16 06:32:54;;;;;;;6.90;4.23;;;;;;;26.85;41.75;98679.25;6939011;28;20214;-86
2021/06/16 06:36:19;;;;;;;4.57;3.70;;;;;;;27.09;40.78;98632.75;6956045;28;20230;-87
2021/06/16 06:39:41;;;;;;;6.13;3.70;;;;;;;27.84;39.46;98655.66;6936971;28;20204;-86
2021/06/16 06:43:03;;;;;;;8.10;3.33;;;;;;;28.57;39.07;98672.34;6946823;28;20211;-87
2021/06/16 06:46:25;;;;;;;3.90;3.57;;;;;;;29.05;38.36;98678.59;6932200;28;20238;-86
2021/06/16 06:49:46;;;;;;;5.50;3.60;;;;;;;29.48;38.31;98676.53;6933757;28;20249;-86
2021/06/16 06:53:09;;;;;;;4.70;3.67;;;;;;;29.19;37.83;98582.00;6956301;28;20216;-86
2021/06/16 06:56:31;;;;;;;7.30;4.10;;;;;;;30.32;35.43;98582.78;6957854;28;20231;-86
2021/06/16 06:59:53;;;;;;;7.33;4.07;;;;;;;30.66;36.81;98674.41;6956938;28;20213;-86
2021/06/16 07:03:14;;;;;;;5.27;3.60;;;;;;;31.53;34.26;98667.72;6957382;28;20209;-86
2021/06/16 07:06:36;;;;;;;6.07;3.70;;;;;;;30.93;34.03;98659.94;6957623;28;20235;-86
2021/06/16 07:09:59;;;;;;;3.60;3.30;;;;;;;29.85;35.70;98628.53;6956189;28;20212;-86
2021/06/16 07:13:21;;;;;;;3.43;3.13;;;;;;;30.56;35.04;98646.97;6957215;28;20199;-86
2021/06/16 07:16:43;;;;;;;5.10;3.00;;;;;;;31.38;33.62;98654.47;6959377;28;20251;-86
2021/06/16 07:20:06;;;;;;;4.80;3.10;;;;;;;30.06;34.89;98634.16;6957156;28;20229;-86
2021/06/16 07:23:28;;;;;;;5.50;3.40;;;;;;;31.34;34.33;98657.13;6962883;28;20202;-86
2021/06/16 07:26:52;;;;;;;5.17;3.10;;;;;;;31.94;32.92;98639.69;6960325;28;20231;-86
2021/06/16 07:30:14;;;;;;;5.60;3.63;;;;;;;32.00;33.66;98607.63;6946298;28;20213;-87
2021/06/16 07:33:36;;;;;;;3.53;3.23;;;;;;;32.86;30.69;98636.75;6956369;28;20214;-86
2021/06/16 07:36:58;;;;;;;3.37;2.90;;;;;;;33.17;30.22;98652.78;6956247;28;20239;-86
2021/06/16 07:40:20;;;;;;;6.50;3.00;;;;;;;33.17;30.57;98645.22;6955965;28;20207;-86
2021/06/16 07:43:43;;;;;;;4.23;3.30;;;;;;;33.45;30.04;98634.88;6955289;28;20198;-86
2021/06/16 07:47:05;;;;;;;3.10;2.80;;;;;;;33.63;28.81;98638.94;6954491;28;20242;-86
2021/06/16 07:50:27;;;;;;;3.10;2.87;;;;;;;32.43;30.68;98619.81;6947420;28;20217;-85
2021/06/16 07:53:49;;;;;;;6.73;2.90;;;;;;;33.53;29.06;98642.25;6956085;28;20212;-86
2021/06/16 07:57:10;;;;;;;5.23;3.00;;;;;;;33.28;29.71;98643.56;6955808;28;20235;-86
2021/06/16 08:00:34;;;;;;;5.10;2.77;;;;;;;33.94;28.94;98621.34;6956783;28;20815;-84
2021/06/16 08:03:55;;;;;;;3.10;2.80;;;;;;;34.37;28.05;98619.25;6956055;28;20203;-86
2021/06/16 08:07:17;;;;;;;4.07;3.00;;;;;;;34.72;27.16;98636.06;6956007;28;20228;-86
2021/06/16 08:10:38;;;;;;;3.40;2.83;;;;;;;34.64;26.00;98539.84;6959146;28;20213;-86
2021/06/16 08:14:00;;;;;;;4.10;2.77;;;;;;;34.32;27.73;98616.72;6962149;28;20203;-85
2021/06/16 08:17:23;;;;;;;5.23;3.10;;;;;;;33.12;28.78;98633.47;6962401;28;20231;-85
2021/06/16 08:20:45;;;;;;;5.00;3.30;;;;;;;31.25;32.92;98636.88;6961202;28;20568;-86
2021/06/16 08:24:08;;;;;;;5.93;3.20;;;;;;;32.28;31.08;98626.13;6962042;28;20207;-86
2021/06/16 08:27:29;;;;;;;4.37;3.20;;;;;;;32.21;31.33;98605.53;6961929;28;20580;-86
2021/06/16 08:30:51;;;;;;;7.80;3.23;;;;;;;32.91;30.16;98627.28;6963435;28;20195;-86
2021/06/16 08:34:14;;;;;;;5.37;3.20;;;;;;;33.20;30.65;98618.53;6965091;28;20206;-87
2021/06/16 08:37:36;;;;;;;3.53;3.00;;;;;;;33.31;30.18;98614.09;6966182;28;20227;-86
2021/06/16 08:41:03;;;;;;;8.10;3.77;;;;;;;32.06;31.19;98598.69;6962640;28;20207;-86
2021/06/16 08:44:25;;;;;;;4.23;3.30;;;;;;;32.90;30.46;98603.31;6962103;28;20188;-86
2021/06/16 08:47:48;;;;;;;6.57;3.40;;;;;;;32.80;30.59;98603.81;6961074;28;20317;-86
2021/06/16 08:51:13;;;;;;;4.77;3.40;;;;;;;33.55;29.08;98600.75;6961079;28;20211;-87
2021/06/16 08:54:36;;;;;;;5.23;3.27;;;;;;;33.32;29.92;98594.16;6962102;28;20207;-86
2021/06/16 08:57:58;;;;;;;3.33;3.00;;;;;;;32.60;30.71;98615.97;6962214;28;20230;-84
2021/06/16 09:01:20;;;;;;;5.10;2.80;;;;;;;33.26;30.38;98589.16;6960766;28;20694;-85
2021/06/16 09:04:46;;;;;;;4.40;2.80;;;;;;;33.03;30.00;98591.75;6961401;28;20246;-85
2021/06/16 09:08:17;;;;;;;4.20;3.37;;;;;;;33.66;29.02;98606.66;6961208;28;20300;-85
2021/06/16 09:11:50;;;;;;;7.33;3.40;;;;;;;32.53;29.84;98597.00;6958936;28;20191;-86
2021/06/16 09:15:14;;;;;;;5.07;3.50;;;;;;;33.70;30.17;98602.75;6933406;28;20200;-86
2021/06/16 09:18:44;;;;;;;4.03;2.80;;;;;;;34.20;28.80;98600.03;6933829;28;20224;-85
2021/06/16 09:22:07;;;;;;;3.70;2.70;;;;;;;35.44;27.36;98598.75;6932447;28;20207;-86
2021/06/16 09:25:30;;;;;;;4.30;2.87;;;;;;;35.17;26.75;98605.38;6933057;28;20619;-86
2021/06/16 09:28:54;;;;;;;3.30;2.60;;;;;;;34.00;27.75;98513.56;6938899;28;20618;-84
2021/06/16 09:32:41;;;;;;;5.50;2.80;;;;;;;35.06;26.64;98601.56;6941978;28;20199;-86
2021/06/16 09:36:10;;;;;;;3.30;2.87;;;;;;;34.91;26.99;98597.66;6932366;28;20239;-83
2021/06/16 09:39:32;;;;;;;9.53;3.40;;;;;;;35.92;24.74;98582.00;6932231;28;20211;-86
2021/06/16 09:42:59;;;;;;;5.63;2.80;;;;;;;35.89;25.02;98579.94;6931892;28;20204;-86
2021/06/16 09:46:21;;;;;;;3.07;2.87;;;;;;;34.84;26.55;98591.91;6932096;28;20236;-86
2021/06/16 09:49:53;;;;;;;3.80;3.13;;;;;;;34.50;26.45;98591.94;6956911;28;20219;-86
2021/06/16 09:53:15;;;;;;;3.30;2.97;;;;;;;35.69;25.60;98586.78;6959337;28;20357;-86
2021/06/16 09:56:36;;;;;;;3.33;2.90;;;;;;;36.43;23.80;98585.22;6959187;28;20224;-86
2021/06/16 10:00:02;;;;;;;2.90;2.40;;;;;;;36.86;22.06;98588.25;6959552;28;20206;-88
2021/06/16 10:03:24;;;;;;;3.27;2.80;;;;;;;37.19;22.74;98573.38;6959329;28;20215;-87
2021/06/16 15:14:12;;;;;;;4.33;2.80;;;;;;;37.36;19.81;98393.53;7043058;23;20228;-84
2021/06/16 15:17:33;;;;;;;3.20;2.77;;;;;;;36.26;20.84;98397.59;7057720;28;20232;-85
2021/06/16 15:20:55;;;;;;;3.10;2.73;;;;;;;37.15;20.55;98342.75;7056274;28;20205;-86
2021/06/16 15:24:17;;;;;;;4.37;2.83;;;;;;;36.65;21.28;98390.44;7054678;28;20204;-87
2021/06/16 15:27:39;;;;;;;2.90;2.70;;;;;;;36.51;20.75;98393.91;7053398;28;20221;-85
2021/06/16 15:31:04;;;;;;;3.40;2.77;;;;;;;36.25;21.74;98393.97;7052660;28;20576;-86
2021/06/16 15:34:28;;;;;;;5.00;3.10;;;;;;;36.25;22.27;98393.97;7054256;28;20196;-85
2021/06/16 15:37:50;;;;;;;3.03;2.80;;;;;;;36.56;21.45;98351.38;7053128;28;20315;-88
2021/06/16 15:41:13;;;;;;;3.67;2.77;;;;;;;36.67;20.37;98379.63;7053576;28;20204;-86
2021/06/16 15:44:34;;;;;;;3.50;2.60;;;;;;;37.16;20.97;98375.31;7052461;28;20212;-84
2021/06/16 15:47:58;;;;;;;4.10;2.80;;;;;;;37.37;19.88;98374.66;7048950;28;20220;-87
2021/06/16 15:51:19;;;;;;;5.17;2.80;;;;;;;37.38;20.01;98382.69;7052142;28;20576;-85
2021/06/16 15:54:41;;;;;;;4.73;2.90;;;;;;;36.83;19.33;98318.34;7055975;28;20217;-86
2021/06/16 15:58:04;;;;;;;3.10;2.80;;;;;;;37.17;19.80;98365.66;7055317;28;20590;-88
2021/06/16 16:01:26;;;;;;;4.13;2.60;;;;;;;37.61;19.22;98359.97;7053025;28;20211;-86
2021/06/16 16:04:49;;;;;;;3.90;2.83;;;;;;;37.24;20.09;98317.09;7051690;28;20203;-85
2021/06/16 18:11:50;;;;;;;5.17;3.03;;;;;;;35.20;23.47;98332.72;7009397;28;20689;-87
2021/06/16 18:15:13;;;;;;;6.30;3.60;;;;;;;34.75;29.54;98338.38;7022645;28;20221;-85
2021/06/16 18:18:34;;;;;;;5.33;3.70;;;;;;;34.45;30.38;98352.22;7000719;28;20233;-85
2021/06/16 18:21:56;;;;;;;10.83;3.30;;;;;;;34.02;31.39;98332.94;7023057;28;20201;-85
2021/06/16 18:25:18;;;;;;;7.20;3.50;;;;;;;33.79;32.29;98353.66;7026320;28;20224;-85
2021/06/16 18:28:41;;;;;;;3.43;3.10;;;;;;;33.44;32.95;98367.59;7026673;28;20197;-85
2021/06/16 18:32:03;;;;;;;6.43;3.30;;;;;;;33.27;33.62;98345.69;7025617;28;20220;-85
2021/06/16 18:35:25;;;;;;;9.37;3.03;;;;;;;32.94;34.15;98342.44;7025163;28;20224;-84
2021/06/16 18:38:47;;;;;;;9.60;3.33;;;;;;;32.64;35.37;98349.63;7026915;28;20210;-85
2021/06/16 18:42:08;;;;;;;5.80;3.13;;;;;;;32.19;35.99;98346.38;7025303;28;20212;-85
2021/06/16 18:45:31;;;;;;;5.13;3.30;;;;;;;32.15;36.72;98358.63;7026231;28;20232;-85
2021/06/16 18:48:53;;;;;;;5.33;3.10;;;;;;;32.07;36.49;98352.00;7025957;28;20202;-85
2021/06/16 18:52:15;;;;;;;4.13;3.60;;;;;;;32.18;36.16;98364.28;7025502;28;20661;-85
2021/06/16 18:55:38;;;;;;;4.37;3.30;;;;;;;32.07;35.99;98368.75;7025257;28;20232;-87
2021/06/16 18:58:59;;;;;;;3.73;3.43;;;;;;;32.14;34.29;98373.75;7005607;28;20232;-87
2021/06/16 19:02:26;;;;;;;3.37;3.03;;;;;;;32.18;32.12;98372.66;7000846;28;20205;-86
2021/06/16 19:05:52;;;;;;;3.80;3.10;;;;;;;32.09;32.55;98354.47;7006473;28;20230;-85
2021/06/16 19:09:14;;;;;;;4.63;3.37;;;;;;;31.97;32.72;98337.78;7000908;28;20226;-85
2021/06/16 19:12:36;;;;;;;6.13;3.50;;;;;;;32.06;34.27;98357.94;7010894;28;20207;-85
2021/06/16 19:15:59;;;;;;;7.50;3.63;;;;;;;32.02;35.17;98357.06;7024251;28;20590;-86
2021/06/16 19:19:22;;;;;;;18.43;12.37;;;;;;;31.54;36.75;98377.50;6996439;28;20229;-85
2021/06/16 19:22:44;;;;;;;5.13;4.10;;;;;;;31.64;37.02;98374.22;6995466;28;20204;-85
2021/06/16 19:26:07;;;;;;;4.80;3.50;;;;;;;30.23;39.91;98355.91;6996266;28;20224;-85
2021/06/16 19:29:28;;;;;;;4.77;3.70;;;;;;;29.82;40.94;98379.03;6996653;28;20240;-85
2021/06/16 19:32:52;;;;;;;4.53;3.63;;;;;;;30.10;39.53;98379.28;6995952;28;20548;-85
2021/06/16 19:36:15;;;;;;;4.43;3.67;;;;;;;30.42;38.05;98384.03;6996046;28;20227;-85
2021/06/16 19:39:37;;;;;;;4.83;3.70;;;;;;;29.92;38.37;98328.56;6996101;28;20563;-85
2021/06/16 19:42:59;;;;;;;5.43;3.63;;;;;;;29.55;39.59;98357.31;6995584;28;20216;-85
2021/06/16 19:46:20;;;;;;;4.33;3.47;;;;;;;29.43;40.13;98361.97;6996235;28;20219;-85
2021/06/16 19:49:42;;;;;;;7.17;3.87;;;;;;;29.03;41.67;98402.41;6996240;28;20207;-84
2021/06/16 19:53:06;;;;;;;3.93;3.63;;;;;;;28.93;41.39;98391.66;6995211;28;20212;-85
2021/06/16 19:56:29;;;;;;;5.00;3.43;;;;;;;29.08;40.50;98380.03;7018858;28;20229;-84
2021/06/16 19:59:51;;;;;;;4.13;3.63;;;;;;;29.30;40.44;98424.97;7024558;28;20235;-84
2021/06/16 20:03:12;;;;;;;4.27;3.43;;;;;;;28.89;41.68;98424.81;7001042;28;20202;-84
2021/06/16 20:06:34;;;;;;;4.00;3.60;;;;;;;29.05;41.63;98425.09;7003811;28;20234;-85
2021/06/16 20:10:02;;;;;;;6.27;3.63;;;;;;;28.83;42.08;98439.22;7001693;28;20207;-83
2021/06/16 20:13:24;;;;;;;4.20;3.60;;;;;;;28.62;43.14;98435.53;7019143;28;20304;-86
2021/06/16 20:16:45;;;;;;;4.30;3.60;;;;;;;28.35;43.19;98427.53;7029099;28;20238;-85
2021/06/16 20:20:08;;;;;;;6.17;3.83;;;;;;;28.15;43.56;98417.97;7008064;28;20201;-85
2021/06/16 20:23:30;;;;;;;6.37;3.90;;;;;;;28.29;43.22;98435.22;7035951;28;20201;-85
2021/06/16 20:26:53;;;;;;;7.73;3.63;;;;;;;28.19;43.60;98435.56;6991658;28;20222;-85
2021/06/16 20:30:14;;;;;;;6.23;3.90;;;;;;;27.96;43.49;98438.84;6984613;28;20216;-82
2021/06/16 20:33:36;;;;;;;3.70;3.20;;;;;;;27.60;43.79;98418.94;6986844;28;20209;-85
2021/06/16 20:36:58;;;;;;;4.60;3.83;;;;;;;27.75;43.53;98422.03;7002215;28;20588;-85
2021/06/16 20:40:20;;;;;;;4.50;3.43;;;;;;;27.71;42.72;98395.31;7002640;28;20199;-85
2021/06/16 20:43:43;;;;;;;4.20;3.80;;;;;;;26.92;45.78;98433.38;7003350;28;20209;-85
2021/06/16 20:47:05;;;;;;;5.00;3.90;;;;;;;26.27;46.90;98437.88;7002055;28;20718;-86
2021/06/16 20:50:27;;;;;;;4.73;4.13;;;;;;;25.78;47.67;98412.28;7001559;28;20201;-86
2021/06/16 20:53:49;;;;;;;3.97;3.63;;;;;;;26.34;46.93;98456.78;6980935;28;20219;-85
2021/06/16 20:57:11;;;;;;;6.23;4.27;;;;;;;26.00;47.69;98442.69;6988671;28;20223;-85
